createdAt,value
2024-04-09T00:02:16.433Z,15.00
2024-04-09T00:04:44.447Z,14.60
2024-04-09T00:07:12.528Z,13.00
2024-04-09T00:09:46.668Z,13.80
2024-04-09T00:12:18.063Z,13.80
2024-04-09T00:14:49.458Z,14.60
2024-04-09T00:17:21.075Z,16.80
2024-04-09T00:19:49.487Z,14.70
2024-04-09T00:22:20.764Z,14.80
2024-04-09T00:24:49.821Z,14.30
2024-04-09T00:27:18.324Z,13.60
2024-04-09T00:29:46.408Z,12.70
2024-04-09T00:32:15.214Z,13.50
2024-04-09T00:34:44.285Z,14.20
2024-04-09T00:37:15.582Z,12.20
2024-04-09T00:39:43.675Z,14.80
2024-04-09T00:42:12.017Z,13.10
2024-04-09T00:44:39.977Z,13.30
2024-04-09T00:47:09.473Z,13.80
2024-04-09T00:49:38.150Z,13.20
2024-04-09T00:52:06.131Z,12.50
2024-04-09T00:54:35.055Z,14.00
2024-04-09T00:57:03.198Z,14.10
2024-04-09T00:59:30.897Z,13.50
2024-04-09T01:02:00.731Z,14.80
2024-04-09T01:04:29.023Z,12.80
2024-04-09T01:06:57.032Z,11.60
2024-04-09T01:09:24.808Z,11.70
2024-04-09T01:11:52.617Z,11.90
2024-04-09T01:14:20.516Z,11.10
2024-04-09T01:16:48.705Z,10.80
2024-04-09T01:19:16.861Z,10.70
2024-04-09T01:21:44.777Z,9.90
2024-04-09T01:24:12.700Z,8.70
2024-04-09T01:26:41.990Z,8.40
2024-04-09T01:29:09.937Z,8.60
2024-04-09T01:31:37.922Z,10.20
2024-04-09T01:34:06.149Z,8.40
2024-04-09T01:36:35.605Z,10.20
2024-04-09T01:39:07.759Z,12.10
2024-04-09T01:41:37.923Z,9.90
2024-04-09T01:44:06.841Z,9.70
2024-04-09T01:46:35.026Z,10.60
2024-04-09T01:49:05.525Z,9.70
2024-04-09T01:51:36.192Z,11.60
2024-04-09T01:54:05.188Z,9.30
2024-04-09T01:56:33.060Z,11.30
2024-04-09T01:59:02.343Z,11.90
2024-04-09T02:01:32.045Z,12.20
2024-04-09T02:04:00.300Z,11.70
2024-04-09T02:06:29.465Z,13.60
2024-04-09T02:08:57.372Z,13.40
2024-04-09T02:11:29.705Z,14.50
2024-04-09T02:13:58.281Z,17.50
2024-04-09T02:16:26.196Z,20.30
2024-04-09T02:18:53.978Z,20.50
2024-04-09T02:21:21.968Z,20.60
2024-04-09T02:23:53.469Z,28.10
2024-04-09T02:26:22.252Z,36.50
2024-04-09T02:28:50.169Z,42.50
2024-04-09T02:31:19.430Z,43.40
2024-04-09T02:33:47.671Z,42.10
2024-04-09T02:36:16.223Z,36.50
2024-04-09T02:38:44.930Z,31.80
2024-04-09T02:41:15.330Z,25.70
2024-04-09T02:43:43.674Z,26.70
2024-04-09T02:46:11.623Z,25.40
2024-04-09T02:48:39.681Z,23.10
2024-04-09T02:51:07.504Z,23.30
2024-04-09T02:53:36.303Z,21.60
2024-04-09T02:56:04.870Z,20.50
2024-04-09T02:58:33.154Z,20.30
2024-04-09T03:01:06.175Z,20.60
2024-04-09T03:03:34.553Z,18.80
2024-04-09T03:06:09.496Z,21.60
2024-04-09T03:08:37.290Z,20.00
2024-04-09T03:11:15.656Z,21.20
2024-04-09T03:13:46.189Z,20.20
2024-04-09T03:16:15.218Z,19.90
2024-04-09T03:18:44.238Z,19.90
2024-04-09T03:21:12.730Z,19.10
2024-04-09T03:23:41.082Z,18.30
2024-04-09T03:26:13.048Z,18.20
2024-04-09T03:28:41.439Z,16.30
2024-04-09T03:31:09.617Z,17.90
2024-04-09T03:33:37.705Z,18.40
2024-04-09T03:36:06.777Z,17.90
2024-04-09T03:38:34.692Z,14.90
2024-04-09T03:41:04.203Z,16.30
2024-04-09T03:43:34.774Z,15.30
2024-04-09T03:46:05.358Z,14.00
2024-04-09T03:48:37.791Z,14.60
2024-04-09T03:51:07.179Z,13.60
2024-04-09T03:53:35.650Z,15.30
2024-04-09T03:56:04.613Z,15.10
2024-04-09T03:58:36.625Z,14.60
2024-04-09T04:01:08.614Z,14.70
2024-04-09T04:03:41.040Z,15.60
2024-04-09T04:06:09.165Z,18.30
2024-04-09T04:08:39.867Z,19.50
2024-04-09T04:11:09.080Z,20.70
2024-04-09T04:13:37.642Z,22.40
2024-04-09T04:16:05.911Z,22.00
2024-04-09T04:18:41.977Z,21.50
2024-04-09T04:21:12.539Z,17.80
2024-04-09T04:23:43.827Z,13.90
2024-04-09T04:26:15.903Z,13.80
2024-04-09T04:28:44.731Z,14.10
2024-04-09T04:31:16.936Z,14.50
2024-04-09T04:36:16.575Z,14.70
2024-04-09T04:38:45.838Z,13.20
2024-04-09T04:41:13.743Z,13.90
2024-04-09T04:43:41.942Z,12.30
2024-04-09T04:46:10.047Z,12.10
2024-04-09T04:48:39.276Z,9.80
2024-04-09T04:51:07.874Z,10.30
2024-04-09T04:53:35.977Z,11.30
2024-04-09T04:56:04.611Z,10.30
2024-04-09T04:58:32.909Z,11.20
2024-04-09T05:01:01.351Z,10.10
2024-04-09T05:03:29.709Z,9.60
2024-04-09T05:06:06.204Z,9.00
2024-04-09T05:08:34.707Z,9.50
2024-04-09T05:11:10.289Z,9.60
2024-04-09T05:13:38.472Z,11.00
2024-04-09T05:16:06.257Z,8.20
2024-04-09T05:18:34.413Z,8.90
2024-04-09T05:21:02.615Z,7.60
2024-04-09T05:23:30.538Z,8.40
2024-04-09T05:25:58.462Z,9.50
2024-04-09T05:28:26.333Z,8.60
2024-04-09T05:30:54.289Z,8.60
2024-04-09T05:33:22.182Z,9.40
2024-04-09T05:35:52.789Z,8.50
2024-04-09T05:38:20.618Z,8.90
2024-04-09T05:40:56.185Z,254.30
2024-04-09T05:43:24.671Z,268.40
2024-04-09T05:45:52.642Z,359.40
2024-04-09T05:48:21.008Z,99.70
2024-04-09T05:50:49.510Z,34.70
2024-04-09T05:53:17.930Z,16.30
2024-04-09T05:55:56.347Z,10.60
2024-04-09T05:58:24.065Z,11.00
2024-04-09T06:00:54.646Z,9.40
2024-04-09T06:03:23.968Z,7.60
2024-04-09T06:05:52.649Z,7.50
2024-04-09T06:08:20.684Z,7.30
2024-04-09T06:10:48.924Z,6.20
2024-04-09T06:13:17.230Z,25.00
2024-04-09T06:15:45.627Z,16.90
2024-04-09T06:18:14.143Z,11.70
2024-04-09T06:20:42.297Z,5.40
2024-04-09T06:23:11.172Z,5.00
2024-04-09T06:25:40.493Z,5.30
2024-04-09T06:28:09.204Z,5.00
2024-04-09T06:30:37.719Z,5.10
2024-04-09T06:35:34.705Z,5.20
2024-04-09T06:38:02.648Z,5.00
2024-04-09T06:40:32.883Z,5.70
2024-04-09T06:43:01.011Z,5.40
2024-04-09T06:45:29.840Z,4.90
2024-04-09T06:47:57.988Z,4.10
2024-04-09T06:50:26.131Z,5.90
2024-04-09T06:52:54.315Z,4.80
2024-04-09T06:55:22.257Z,5.90
2024-04-09T06:57:50.528Z,6.60
2024-04-09T07:00:19.176Z,5.60
2024-04-09T07:02:47.428Z,4.60
2024-04-09T07:05:15.535Z,4.00
2024-04-09T07:07:43.703Z,5.60
2024-04-09T07:10:12.432Z,5.30
2024-04-09T07:12:40.553Z,3.90
2024-04-09T07:15:08.555Z,5.20
2024-04-09T07:17:36.815Z,3.40
2024-04-09T07:20:05.435Z,3.50
2024-04-09T07:22:33.172Z,3.40
2024-04-09T07:25:00.931Z,3.80
2024-04-09T07:27:28.880Z,4.40
2024-04-09T07:29:56.883Z,3.50
2024-04-09T07:32:25.667Z,3.70
2024-04-09T07:34:53.776Z,4.00
2024-04-09T07:37:22.401Z,3.80
2024-04-09T07:39:51.228Z,3.10
2024-04-09T07:42:19.196Z,3.40
2024-04-09T07:44:47.737Z,3.90
2024-04-09T07:47:16.358Z,3.40
2024-04-09T07:49:44.338Z,2.80
2024-04-09T07:52:12.345Z,2.80
2024-04-09T07:54:40.672Z,4.90
2024-04-09T07:57:15.806Z,7.50
2024-04-09T07:59:45.220Z,3.40
2024-04-09T08:02:13.418Z,3.90
2024-04-09T08:04:41.861Z,3.30
2024-04-09T08:07:10.194Z,3.90
2024-04-09T08:09:38.729Z,3.30
2024-04-09T08:12:07.588Z,3.80
2024-04-09T08:14:35.481Z,2.80
2024-04-09T08:17:03.448Z,3.40
2024-04-09T08:19:32.411Z,2.90
2024-04-09T08:22:00.788Z,3.10
2024-04-09T08:24:28.949Z,3.00
2024-04-09T08:26:57.029Z,3.00
2024-04-09T08:29:25.179Z,2.80
2024-04-09T08:31:54.035Z,2.90
2024-04-09T08:34:23.018Z,2.60
2024-04-09T08:36:51.596Z,2.80
2024-04-09T08:39:19.774Z,2.70
2024-04-09T08:41:47.981Z,2.80
2024-04-09T08:44:16.024Z,2.80
2024-04-09T08:46:44.605Z,2.60
2024-04-09T08:49:13.220Z,2.10
2024-04-09T08:51:41.683Z,2.10
2024-04-09T08:54:09.839Z,3.10
2024-04-09T08:56:37.965Z,2.70
2024-04-09T08:59:06.270Z,2.00
2024-04-09T09:01:34.624Z,2.60
2024-04-09T09:04:03.031Z,2.50
2024-04-09T09:06:31.954Z,2.10
2024-04-09T09:09:01.716Z,2.10
2024-04-09T09:11:29.842Z,2.30
2024-04-09T09:14:07.462Z,1.40
2024-04-09T09:16:36.186Z,1.80
2024-04-09T09:19:06.781Z,2.60
2024-04-09T09:21:35.632Z,2.00
2024-04-09T09:24:06.229Z,1.90
2024-04-09T09:26:34.166Z,3.00
2024-04-09T09:29:05.535Z,2.10
2024-04-09T09:31:33.823Z,2.00
2024-04-09T09:34:01.973Z,1.70
2024-04-09T09:36:30.288Z,1.70
2024-04-09T09:38:58.151Z,2.30
2024-04-09T09:41:26.029Z,1.50
2024-04-09T09:43:56.086Z,2.40
2024-04-09T09:46:24.524Z,1.80
2024-04-09T09:48:57.243Z,1.80
2024-04-09T09:51:25.833Z,1.90
2024-04-09T09:53:53.890Z,2.60
2024-04-09T09:56:22.148Z,1.60
2024-04-09T09:58:50.246Z,2.10
2024-04-09T10:01:18.335Z,1.60
2024-04-09T10:03:46.717Z,1.70
2024-04-09T10:06:15.733Z,2.00
2024-04-09T10:08:44.194Z,2.30
2024-04-09T10:11:12.966Z,1.80
2024-04-09T10:13:51.900Z,1.80
2024-04-09T10:16:19.991Z,2.60
2024-04-09T10:18:49.851Z,2.30
2024-04-09T10:21:29.319Z,1.60
2024-04-09T10:24:03.091Z,2.10
2024-04-09T10:26:32.163Z,2.20
2024-04-09T10:29:04.663Z,1.80
2024-04-09T10:31:32.743Z,1.50
2024-04-09T10:34:01.106Z,1.70
2024-04-09T10:36:29.184Z,2.20
2024-04-09T10:38:56.997Z,2.00
2024-04-09T10:41:25.152Z,2.20
2024-04-09T10:43:53.267Z,3.60
2024-04-09T10:46:22.894Z,2.90
2024-04-09T10:48:55.767Z,3.10
2024-04-09T10:51:24.039Z,2.60
2024-04-09T10:53:52.254Z,2.50
2024-04-09T10:56:20.158Z,2.40
2024-04-09T10:58:48.191Z,2.30
2024-04-09T11:01:17.527Z,2.60
2024-04-09T11:03:46.061Z,2.40
2024-04-09T11:06:16.167Z,2.20
2024-04-09T11:08:46.702Z,1.90
2024-04-09T11:11:14.922Z,1.80
2024-04-09T11:13:43.444Z,1.70
2024-04-09T11:16:19.314Z,2.00
2024-04-09T11:19:00.858Z,1.60
2024-04-09T11:21:30.775Z,2.30
2024-04-09T11:23:58.839Z,2.10
2024-04-09T11:26:26.736Z,2.10
2024-04-09T11:28:55.763Z,2.40
2024-04-09T11:31:24.002Z,3.00
2024-04-09T11:33:52.402Z,4.00
2024-04-09T11:36:29.920Z,2.40
2024-04-09T11:39:00.859Z,2.40
2024-04-09T11:41:29.309Z,2.30
2024-04-09T11:44:00.024Z,2.30
2024-04-09T11:46:28.334Z,1.50
2024-04-09T11:49:01.927Z,2.10
2024-04-09T11:51:32.090Z,2.30
2024-04-09T11:54:03.934Z,1.80
2024-04-09T11:56:33.922Z,1.80
2024-04-09T11:59:02.412Z,2.20
2024-04-09T12:01:30.674Z,2.00
2024-04-09T12:03:59.622Z,2.60
2024-04-09T12:06:29.555Z,2.00
2024-04-09T12:08:57.812Z,3.20
2024-04-09T12:11:27.113Z,2.80
2024-04-09T12:13:55.316Z,3.00
2024-04-09T12:16:23.350Z,3.00
2024-04-09T12:18:51.569Z,2.30
2024-04-09T12:21:19.630Z,2.30
2024-04-09T12:23:47.793Z,2.00
2024-04-09T12:26:16.037Z,2.20
2024-04-09T12:28:44.375Z,2.90
2024-04-09T12:31:12.414Z,2.40
2024-04-09T12:33:41.220Z,2.30
2024-04-09T12:36:09.135Z,1.90
2024-04-09T12:38:37.043Z,3.10
2024-04-09T12:41:04.867Z,3.00
2024-04-09T12:43:32.881Z,3.40
2024-04-09T12:46:00.846Z,3.60
2024-04-09T12:48:28.712Z,2.40
2024-04-09T12:50:57.265Z,4.20
2024-04-09T12:53:25.107Z,6.40
2024-04-09T12:55:54.138Z,6.70
2024-04-09T12:58:22.734Z,7.00
2024-04-09T13:01:05.342Z,7.70
2024-04-09T13:03:39.535Z,6.50
2024-04-09T13:06:08.412Z,5.70
2024-04-09T13:08:36.946Z,5.40
2024-04-09T13:11:14.012Z,8.00
2024-04-09T13:13:42.118Z,5.80
2024-04-09T13:18:42.274Z,5.50
2024-04-09T13:21:10.595Z,5.90
2024-04-09T13:23:38.521Z,5.40
2024-04-09T13:26:06.539Z,5.10
2024-04-09T13:28:36.423Z,5.70
2024-04-09T13:31:06.571Z,4.90
2024-04-09T13:33:34.966Z,4.80
2024-04-09T13:36:03.032Z,5.10
2024-04-09T13:38:32.919Z,6.00
2024-04-09T13:41:02.907Z,5.30
2024-04-09T13:43:31.709Z,5.40
2024-04-09T13:45:59.883Z,6.70
2024-04-09T13:48:28.621Z,6.10
2024-04-09T13:50:57.244Z,6.70
2024-04-09T13:53:25.835Z,6.30
2024-04-09T13:55:53.773Z,6.40
2024-04-09T13:58:21.769Z,5.40
2024-04-09T14:00:49.855Z,6.50
2024-04-09T14:03:18.236Z,6.30
2024-04-09T14:05:46.392Z,5.20
2024-04-09T14:08:14.551Z,4.80
2024-04-09T14:10:42.896Z,4.90
2024-04-09T14:13:11.201Z,4.90
2024-04-09T14:15:40.009Z,3.80
2024-04-09T14:18:11.988Z,4.30
2024-04-09T14:20:40.242Z,3.80
2024-04-09T14:23:09.737Z,4.40
2024-04-09T14:25:37.580Z,4.00
2024-04-09T14:28:05.810Z,5.10
2024-04-09T14:30:35.027Z,4.90
2024-04-09T14:33:03.196Z,5.30
2024-04-09T14:35:31.686Z,4.20
2024-04-09T14:37:59.955Z,5.00
2024-04-09T14:40:27.988Z,4.40
2024-04-09T14:42:58.092Z,3.70
2024-04-09T14:45:28.613Z,3.60
2024-04-09T14:47:57.036Z,4.00
2024-04-09T14:50:26.135Z,4.30
2024-04-09T14:52:54.736Z,4.20
2024-04-09T14:55:23.625Z,4.50
2024-04-09T14:57:51.919Z,4.60
2024-04-09T15:00:20.227Z,4.20
2024-04-09T15:02:48.085Z,4.80
2024-04-09T15:05:17.427Z,4.80
2024-04-09T15:07:45.729Z,5.20
2024-04-09T15:10:14.194Z,5.40
2024-04-09T15:12:42.736Z,5.60
2024-04-09T15:15:11.985Z,6.30
2024-04-09T15:17:40.448Z,6.70
2024-04-09T15:20:12.341Z,6.80
2024-04-09T15:22:40.352Z,5.80
2024-04-09T15:25:14.115Z,6.40
2024-04-09T15:27:43.569Z,5.60
2024-04-09T15:30:12.143Z,5.50
2024-04-09T15:32:43.239Z,4.90
2024-04-09T15:37:40.868Z,2.40
2024-04-09T15:40:15.635Z,2.90
2024-04-09T15:42:47.421Z,2.80
2024-04-09T15:45:15.636Z,2.50
2024-04-09T15:47:45.490Z,2.30
2024-04-09T15:50:14.779Z,2.60
2024-04-09T15:52:42.883Z,2.50
2024-04-09T15:55:12.907Z,2.20
2024-04-09T15:57:42.238Z,2.50
2024-04-09T16:00:13.623Z,2.60
2024-04-09T16:02:42.092Z,2.60
2024-04-09T16:05:10.206Z,2.50
2024-04-09T16:07:39.171Z,3.10
2024-04-09T16:10:07.417Z,3.90
2024-04-09T16:12:36.339Z,3.20
2024-04-09T16:15:05.519Z,3.20
2024-04-09T16:17:33.869Z,3.30
2024-04-09T16:20:02.777Z,4.40
2024-04-09T16:22:30.937Z,9.70
2024-04-09T16:24:58.981Z,9.10
2024-04-09T16:27:27.846Z,9.80
2024-04-09T16:29:56.206Z,9.30
2024-04-09T16:32:24.455Z,7.50
2024-04-09T16:34:52.637Z,8.20
2024-04-09T16:37:20.665Z,17.00
2024-04-09T16:39:49.449Z,20.70
2024-04-09T16:42:19.472Z,21.10
2024-04-09T16:44:47.827Z,20.60
2024-04-09T16:47:15.837Z,12.50
2024-04-09T16:49:44.043Z,12.70
2024-04-09T16:52:13.109Z,9.90
2024-04-09T16:54:40.895Z,9.70
2024-04-09T16:57:09.979Z,8.70
2024-04-09T16:59:38.325Z,5.90
2024-04-09T17:02:06.678Z,5.30
2024-04-09T17:04:34.777Z,5.40
2024-04-09T17:07:02.874Z,8.00
2024-04-09T17:09:30.956Z,7.00
2024-04-09T17:11:59.202Z,7.40
2024-04-09T17:14:28.016Z,5.60
2024-04-09T17:16:56.375Z,6.10
2024-04-09T17:19:25.365Z,5.20
2024-04-09T17:21:56.376Z,5.10
2024-04-09T17:24:24.558Z,6.90
2024-04-09T17:26:52.592Z,5.40
2024-04-09T17:29:20.588Z,7.90
2024-04-09T17:31:48.749Z,6.30
2024-04-09T17:34:17.098Z,7.30
2024-04-09T17:36:45.266Z,4.40
2024-04-09T17:39:13.424Z,5.20
2024-04-09T17:41:43.103Z,5.30
2024-04-09T17:44:11.098Z,4.30
2024-04-09T17:46:39.209Z,4.50
2024-04-09T17:49:07.570Z,4.10
2024-04-09T17:51:35.935Z,3.80
2024-04-09T17:54:04.346Z,4.30
2024-04-09T17:56:32.703Z,4.00
2024-04-09T17:59:01.245Z,3.50
2024-04-09T18:01:30.548Z,5.30
2024-04-09T18:03:59.156Z,5.90
2024-04-09T18:06:27.807Z,5.10
2024-04-09T18:08:56.279Z,7.10
2024-04-09T18:11:26.405Z,4.50
2024-04-09T18:13:54.775Z,5.10
2024-04-09T18:16:23.167Z,4.20
2024-04-09T18:18:54.827Z,4.70
2024-04-09T18:21:24.478Z,5.40
2024-04-09T18:23:52.683Z,5.90
2024-04-09T18:26:21.833Z,5.80
2024-04-09T18:28:50.065Z,7.90
2024-04-09T18:31:18.200Z,7.50
2024-04-09T18:33:47.466Z,6.90
2024-04-09T18:36:15.568Z,7.10
2024-04-09T18:38:48.577Z,8.20
2024-04-09T18:41:17.298Z,7.80
2024-04-09T18:43:45.741Z,8.80
2024-04-09T18:46:14.178Z,7.30
2024-04-09T18:48:42.385Z,7.30
2024-04-09T18:51:14.853Z,7.50
2024-04-09T18:53:42.928Z,7.10
2024-04-09T18:56:11.040Z,7.80
2024-04-09T18:58:39.179Z,7.80
2024-04-09T19:01:07.502Z,8.80
2024-04-09T19:03:38.869Z,9.10
2024-04-09T19:06:07.089Z,8.30
2024-04-09T19:08:35.196Z,9.80
2024-04-09T19:11:05.825Z,10.90
2024-04-09T19:13:34.886Z,14.10
2024-04-09T19:16:05.016Z,12.70
2024-04-09T19:18:35.860Z,13.60
2024-04-09T19:21:04.480Z,12.10
2024-04-09T19:23:33.152Z,10.90
2024-04-09T19:26:01.550Z,12.80
2024-04-09T19:28:29.460Z,10.00
2024-04-09T19:30:58.503Z,10.40
2024-04-09T19:33:26.743Z,10.00
2024-04-09T19:35:58.003Z,11.90
2024-04-09T19:38:25.815Z,9.70
2024-04-09T19:40:55.411Z,10.20
2024-04-09T19:43:34.143Z,8.40
2024-04-09T19:46:10.570Z,9.40
2024-04-09T19:48:38.878Z,10.00
2024-04-09T19:51:07.362Z,8.70
2024-04-09T19:53:46.657Z,8.90
2024-04-09T19:56:22.390Z,9.50
2024-04-09T19:58:50.763Z,9.30
2024-04-09T20:01:19.539Z,11.50
2024-04-09T20:03:48.033Z,13.70
2024-04-09T20:06:16.367Z,14.60
2024-04-09T20:08:44.466Z,14.90
2024-04-09T20:11:13.830Z,18.00
2024-04-09T20:13:43.505Z,20.40
2024-04-09T20:16:11.994Z,19.10
2024-04-09T20:18:40.755Z,19.00
2024-04-09T20:21:08.809Z,21.90
2024-04-09T20:23:36.890Z,19.40
2024-04-09T20:26:05.340Z,20.10
2024-04-09T20:28:33.254Z,17.80
2024-04-09T20:31:05.642Z,16.50
2024-04-09T20:36:02.010Z,12.20
2024-04-09T20:38:30.106Z,15.00
2024-04-09T20:41:01.769Z,13.40
2024-04-09T20:43:29.873Z,12.00
2024-04-09T20:45:58.098Z,11.10
2024-04-09T20:48:26.122Z,10.40
2024-04-09T20:50:55.760Z,9.30
2024-04-09T20:53:23.568Z,9.00
2024-04-09T20:56:00.653Z,6.80
2024-04-09T20:58:28.653Z,7.20
2024-04-09T21:00:56.549Z,6.40
2024-04-09T21:03:24.621Z,5.80
2024-04-09T21:05:52.577Z,4.50
2024-04-09T21:08:20.706Z,5.00
2024-04-09T21:10:51.787Z,4.60
2024-04-09T21:13:19.897Z,5.20
2024-04-09T21:15:47.820Z,3.50
2024-04-09T21:18:17.929Z,4.00
2024-04-09T21:20:46.863Z,3.50
2024-04-09T21:23:14.845Z,3.90
2024-04-09T21:25:46.589Z,3.60
2024-04-09T21:28:14.658Z,3.50
2024-04-09T21:30:42.488Z,3.20
2024-04-09T21:33:11.123Z,3.60
2024-04-09T21:35:40.497Z,3.80
2024-04-09T21:38:08.484Z,4.20
2024-04-09T21:40:36.453Z,3.50
2024-04-09T21:43:04.400Z,3.90
2024-04-09T21:45:32.428Z,3.50
2024-04-09T21:48:00.660Z,4.60
2024-04-09T21:50:29.511Z,3.50
2024-04-09T21:52:58.098Z,4.60
2024-04-09T21:55:26.094Z,3.90
2024-04-09T21:57:54.266Z,4.00
2024-04-09T22:00:24.925Z,3.70
2024-04-09T22:02:53.935Z,3.60
2024-04-09T22:05:22.294Z,3.70
2024-04-09T22:07:51.226Z,3.20
2024-04-09T22:10:19.346Z,4.80
2024-04-09T22:12:47.307Z,15.50
2024-04-09T22:15:15.270Z,15.50
2024-04-09T22:17:46.083Z,16.50
2024-04-09T22:20:14.399Z,14.90
2024-04-09T22:27:02.234Z,10.30
2024-04-09T22:29:30.319Z,9.80
2024-04-09T22:31:58.333Z,9.40
2024-04-09T22:34:26.394Z,9.10
2024-04-09T22:36:54.595Z,8.40
2024-04-09T22:39:22.799Z,8.10
2024-04-09T22:41:50.725Z,8.70
2024-04-09T22:44:18.447Z,8.00
2024-04-09T22:46:46.271Z,8.10
2024-04-09T22:49:14.500Z,7.40
2024-04-09T22:51:45.039Z,7.50
2024-04-09T22:54:13.108Z,6.10
2024-04-09T22:56:41.109Z,6.10
2024-04-09T22:59:09.007Z,6.10
2024-04-09T23:01:36.872Z,7.30
2024-04-09T23:04:04.901Z,5.80
2024-04-09T23:06:33.520Z,5.60
2024-04-09T23:09:02.188Z,5.50
2024-04-09T23:11:29.974Z,7.00
2024-04-09T23:13:57.955Z,6.20
2024-04-09T23:16:26.034Z,5.50
2024-04-09T23:18:54.619Z,7.10
2024-04-09T23:21:23.371Z,6.40
2024-04-09T23:23:51.667Z,6.30
2024-04-09T23:26:19.922Z,6.50
2024-04-09T23:28:47.864Z,5.70
2024-04-09T23:31:18.086Z,6.40
2024-04-09T23:33:46.438Z,5.80
2024-04-09T23:36:14.434Z,6.20
2024-04-09T23:38:42.390Z,6.80
2024-04-09T23:41:10.977Z,6.40
2024-04-09T23:43:38.791Z,6.30
2024-04-09T23:46:08.890Z,7.10
2024-04-09T23:48:37.159Z,5.50
2024-04-09T23:51:08.736Z,6.30
2024-04-09T23:53:37.195Z,6.00
2024-04-09T23:56:05.831Z,6.90
2024-04-09T23:58:34.415Z,5.90
